sensor_id;sensor_type;location;lat;lon;timestamp;temperature;humidity
19435;DHT22;9853;50.848;4.108;2024-01-15T00:01:36;2.50;99.90
19435;DHT22;9853;50.848;4.108;2024-01-15T00:03:37;2.50;99.90
19435;DHT22;9853;50.848;4.108;2024-01-15T00:05:38;2.60;99.90
19435;DHT22;9853;50.848;4.108;2024-01-15T00:07:39;2.50;99.90
19435;DHT22;9853;50.848;4.108;2024-01-15T00:09:39;2.60;99.90
19435;DHT22;9853;50.848;4.108;2024-01-15T00:11:40;2.60;99.90
19435;DHT22;9853;50.848;4.108;2024-01-15T00:13:41;2.50;99.90
19435;DHT22;9853;50.848;4.108;2024-01-15T00:15:42;2.50;99.90
19435;DHT22;9853;50.848;4.108;2024-01-15T00:17:44;2.50;99.90
19435;DHT22;9853;50.848;4.108;2024-01-15T00:19:45;2.40;99.90
19435;DHT22;9853;50.848;4.108;2024-01-15T00:21:46;2.40;99.90
19435;DHT22;9853;50.848;4.108;2024-01-15T00:23:47;2.40;99.90
19435;DHT22;9853;50.848;4.108;2024-01-15T00:25:50;2.40;99.90
19435;DHT22;9853;50.848;4.108;2024-01-15T00:27:51;2.30;99.90
19435;DHT22;9853;50.848;4.108;2024-01-15T00:29:52;2.30;99.90
19435;DHT22;9853;50.848;4.108;2024-01-15T00:31:53;2.30;99.90
19435;DHT22;9853;50.848;4.108;2024-01-15T00:33:53;2.30;99.90
19435;DHT22;9853;50.848;4.108;2024-01-15T00:35:54;2.40;99.90
19435;DHT22;9853;50.848;4.108;2024-01-15T00:37:55;2.50;99.90
19435;DHT22;9853;50.848;4.108;2024-01-15T00:39:56;2.40;99.90
19435;DHT22;9853;50.848;4.108;2024-01-15T00:41:57;2.50;99.90
19435;DHT22;9853;50.848;4.108;2024-01-15T00:43:57;2.60;99.90
19435;DHT22;9853;50.848;4.108;2024-01-15T00:46:02;2.60;99.90
19435;DHT22;9853;50.848;4.108;2024-01-15T00:48:03;2.80;99.90
19435;DHT22;9853;50.848;4.108;2024-01-15T00:50:05;2.80;99.90
19435;DHT22;9853;50.848;4.108;2024-01-15T00:52:06;2.80;99.90
19435;DHT22;9853;50.848;4.108;2024-01-15T00:54:07;2.80;99.90
19435;DHT22;9853;50.848;4.108;2024-01-15T00:56:08;2.80;99.90
19435;DHT22;9853;50.848;4.108;2024-01-15T00:58:09;2.90;99.90
19435;DHT22;9853;50.848;4.108;2024-01-15T01:00:10;2.90;99.90
19435;DHT22;9853;50.848;4.108;2024-01-15T01:02:11;2.80;99.90
19435;DHT22;9853;50.848;4.108;2024-01-15T01:04:12;2.70;99.90
19435;DHT22;9853;50.848;4.108;2024-01-15T01:06:13;2.60;99.90
19435;DHT22;9853;50.848;4.108;2024-01-15T01:08:14;2.50;99.90
19435;DHT22;9853;50.848;4.108;2024-01-15T01:10:15;2.60;99.90
19435;DHT22;9853;50.848;4.108;2024-01-15T01:12:16;2.60;99.90
19435;DHT22;9853;50.848;4.108;2024-01-15T01:14:17;2.60;99.90
19435;DHT22;9853;50.848;4.108;2024-01-15T01:16:18;2.60;99.90
19435;DHT22;9853;50.848;4.108;2024-01-15T01:18:18;2.60;99.90
19435;DHT22;9853;50.848;4.108;2024-01-15T01:20:19;2.60;99.90
19435;DHT22;9853;50.848;4.108;2024-01-15T01:22:20;2.60;99.90
19435;DHT22;9853;50.848;4.108;2024-01-15T01:24:21;2.60;99.90
19435;DHT22;9853;50.848;4.108;2024-01-15T01:26:22;2.60;99.90
19435;DHT22;9853;50.848;4.108;2024-01-15T01:28:22;2.70;99.90
19435;DHT22;9853;50.848;4.108;2024-01-15T01:30:23;2.80;99.90
19435;DHT22;9853;50.848;4.108;2024-01-15T01:32:24;2.70;99.90
19435;DHT22;9853;50.848;4.108;2024-01-15T01:34:25;2.80;99.90
19435;DHT22;9853;50.848;4.108;2024-01-15T01:36:26;2.90;99.90
19435;DHT22;9853;50.848;4.108;2024-01-15T01:38:27;2.90;99.90
19435;DHT22;9853;50.848;4.108;2024-01-15T01:40:28;2.90;99.90
19435;DHT22;9853;50.848;4.108;2024-01-15T01:42:29;2.80;99.90
19435;DHT22;9853;50.848;4.108;2024-01-15T01:44:30;2.90;99.90
19435;DHT22;9853;50.848;4.108;2024-01-15T01:46:31;3.10;99.90
19435;DHT22;9853;50.848;4.108;2024-01-15T01:48:32;3.10;99.90
19435;DHT22;9853;50.848;4.108;2024-01-15T01:50:33;3.00;99.90
19435;DHT22;9853;50.848;4.108;2024-01-15T01:52:35;2.90;99.90
19435;DHT22;9853;50.848;4.108;2024-01-15T01:54:37;2.90;99.90
19435;DHT22;9853;50.848;4.108;2024-01-15T01:56:38;2.90;99.90
19435;DHT22;9853;50.848;4.108;2024-01-15T01:58:39;3.10;99.90
19435;DHT22;9853;50.848;4.108;2024-01-15T02:00:41;3.20;99.90
19435;DHT22;9853;50.848;4.108;2024-01-15T02:02:42;3.30;99.90
19435;DHT22;9853;50.848;4.108;2024-01-15T02:04:43;3.30;99.90
19435;DHT22;9853;50.848;4.108;2024-01-15T02:06:44;3.40;99.90
19435;DHT22;9853;50.848;4.108;2024-01-15T02:08:45;3.30;99.90
19435;DHT22;9853;50.848;4.108;2024-01-15T02:10:46;3.30;99.90
19435;DHT22;9853;50.848;4.108;2024-01-15T02:12:48;3.40;99.90
19435;DHT22;9853;50.848;4.108;2024-01-15T02:14:49;3.30;99.90
19435;DHT22;9853;50.848;4.108;2024-01-15T02:16:49;3.20;99.90
19435;DHT22;9853;50.848;4.108;2024-01-15T02:18:50;3.10;99.90
19435;DHT22;9853;50.848;4.108;2024-01-15T02:20:51;2.90;99.90
19435;DHT22;9853;50.848;4.108;2024-01-15T02:22:52;3.10;99.90
19435;DHT22;9853;50.848;4.108;2024-01-15T02:24:53;3.00;99.90
19435;DHT22;9853;50.848;4.108;2024-01-15T02:26:54;2.90;99.90
19435;DHT22;9853;50.848;4.108;2024-01-15T02:28:55;2.70;99.90
19435;DHT22;9853;50.848;4.108;2024-01-15T02:30:56;2.80;99.90
19435;DHT22;9853;50.848;4.108;2024-01-15T02:32:58;2.80;99.90
19435;DHT22;9853;50.848;4.108;2024-01-15T02:34:59;2.80;99.90
19435;DHT22;9853;50.848;4.108;2024-01-15T02:37:00;2.80;99.90
19435;DHT22;9853;50.848;4.108;2024-01-15T02:39:01;2.80;99.90
19435;DHT22;9853;50.848;4.108;2024-01-15T02:41:02;2.70;99.90
19435;DHT22;9853;50.848;4.108;2024-01-15T02:43:03;2.70;99.90
19435;DHT22;9853;50.848;4.108;2024-01-15T02:45:04;2.70;99.90
19435;DHT22;9853;50.848;4.108;2024-01-15T02:47:05;2.70;99.90
19435;DHT22;9853;50.848;4.108;2024-01-15T02:49:06;2.70;99.90
19435;DHT22;9853;50.848;4.108;2024-01-15T02:51:07;2.70;99.90
19435;DHT22;9853;50.848;4.108;2024-01-15T02:53:08;2.70;99.90
19435;DHT22;9853;50.848;4.108;2024-01-15T02:55:09;2.70;99.90
19435;DHT22;9853;50.848;4.108;2024-01-15T02:57:10;2.70;99.90
19435;DHT22;9853;50.848;4.108;2024-01-15T02:59:10;2.70;99.90
19435;DHT22;9853;50.848;4.108;2024-01-15T03:01:11;2.70;99.90
19435;DHT22;9853;50.848;4.108;2024-01-15T03:03:12;2.70;99.90
19435;DHT22;9853;50.848;4.108;2024-01-15T03:05:13;2.80;99.90
19435;DHT22;9853;50.848;4.108;2024-01-15T03:07:15;3.00;99.90
19435;DHT22;9853;50.848;4.108;2024-01-15T03:09:16;2.80;99.90
19435;DHT22;9853;50.848;4.108;2024-01-15T03:11:17;2.80;99.90
19435;DHT22;9853;50.848;4.108;2024-01-15T03:13:18;2.90;99.90
19435;DHT22;9853;50.848;4.108;2024-01-15T03:15:19;2.90;99.90
19435;DHT22;9853;50.848;4.108;2024-01-15T03:17:20;2.70;99.90
19435;DHT22;9853;50.848;4.108;2024-01-15T03:19:21;2.50;99.90
19435;DHT22;9853;50.848;4.108;2024-01-15T03:21:22;2.30;99.90
19435;DHT22;9853;50.848;4.108;2024-01-15T03:23:23;2.50;99.90
19435;DHT22;9853;50.848;4.108;2024-01-15T03:25:24;2.50;99.90
19435;DHT22;9853;50.848;4.108;2024-01-15T03:27:25;2.60;99.90
19435;DHT22;9853;50.848;4.108;2024-01-15T03:29:26;2.50;99.90
19435;DHT22;9853;50.848;4.108;2024-01-15T03:31:27;2.40;99.90
19435;DHT22;9853;50.848;4.108;2024-01-15T03:33:28;2.40;99.90
19435;DHT22;9853;50.848;4.108;2024-01-15T03:35:29;2.50;99.90
19435;DHT22;9853;50.848;4.108;2024-01-15T03:37:31;2.50;99.90
19435;DHT22;9853;50.848;4.108;2024-01-15T03:39:32;2.50;99.90
19435;DHT22;9853;50.848;4.108;2024-01-15T03:41:33;2.50;99.90
19435;DHT22;9853;50.848;4.108;2024-01-15T03:43:34;2.60;99.90
19435;DHT22;9853;50.848;4.108;2024-01-15T03:45:34;2.70;99.90
19435;DHT22;9853;50.848;4.108;2024-01-15T03:47:35;2.70;99.90
19435;DHT22;9853;50.848;4.108;2024-01-15T03:49:36;2.60;99.90
19435;DHT22;9853;50.848;4.108;2024-01-15T03:51:37;2.60;99.90
19435;DHT22;9853;50.848;4.108;2024-01-15T03:53:38;2.50;99.90
19435;DHT22;9853;50.848;4.108;2024-01-15T03:55:39;2.60;99.90
19435;DHT22;9853;50.848;4.108;2024-01-15T03:57:40;2.70;99.90
19435;DHT22;9853;50.848;4.108;2024-01-15T03:59:41;2.70;99.90
19435;DHT22;9853;50.848;4.108;2024-01-15T04:01:48;2.70;99.90
19435;DHT22;9853;50.848;4.108;2024-01-15T04:03:50;2.70;99.90
19435;DHT22;9853;50.848;4.108;2024-01-15T04:05:51;2.70;99.90
19435;DHT22;9853;50.848;4.108;2024-01-15T04:07:51;2.90;99.90
19435;DHT22;9853;50.848;4.108;2024-01-15T04:09:52;2.90;99.90
19435;DHT22;9853;50.848;4.108;2024-01-15T04:11:53;3.00;99.90
19435;DHT22;9853;50.848;4.108;2024-01-15T04:13:54;3.10;99.90
19435;DHT22;9853;50.848;4.108;2024-01-15T04:15:55;2.90;99.90
19435;DHT22;9853;50.848;4.108;2024-01-15T04:17:55;2.70;99.90
19435;DHT22;9853;50.848;4.108;2024-01-15T04:19:56;2.80;99.90
19435;DHT22;9853;50.848;4.108;2024-01-15T04:21:57;2.70;99.90
19435;DHT22;9853;50.848;4.108;2024-01-15T04:23:58;2.70;99.90
19435;DHT22;9853;50.848;4.108;2024-01-15T04:25:59;2.70;99.90
19435;DHT22;9853;50.848;4.108;2024-01-15T04:28:00;2.70;99.90
19435;DHT22;9853;50.848;4.108;2024-01-15T04:30:00;2.70;99.90
19435;DHT22;9853;50.848;4.108;2024-01-15T04:32:01;2.60;99.90
19435;DHT22;9853;50.848;4.108;2024-01-15T04:34:02;2.80;99.90
19435;DHT22;9853;50.848;4.108;2024-01-15T04:36:04;2.90;99.90
19435;DHT22;9853;50.848;4.108;2024-01-15T04:38:05;3.00;99.90
19435;DHT22;9853;50.848;4.108;2024-01-15T04:40:07;3.10;99.90
19435;DHT22;9853;50.848;4.108;2024-01-15T04:42:08;3.00;99.90
19435;DHT22;9853;50.848;4.108;2024-01-15T04:44:09;3.00;99.90
19435;DHT22;9853;50.848;4.108;2024-01-15T04:46:09;2.90;99.90
19435;DHT22;9853;50.848;4.108;2024-01-15T04:48:10;3.00;99.90
19435;DHT22;9853;50.848;4.108;2024-01-15T04:50:11;2.80;99.90
19435;DHT22;9853;50.848;4.108;2024-01-15T04:52:12;2.70;99.90
19435;DHT22;9853;50.848;4.108;2024-01-15T04:54:13;2.60;99.90
19435;DHT22;9853;50.848;4.108;2024-01-15T04:56:18;2.80;99.90
19435;DHT22;9853;50.848;4.108;2024-01-15T04:58:18;2.80;99.90
19435;DHT22;9853;50.848;4.108;2024-01-15T05:00:19;2.90;99.90
19435;DHT22;9853;50.848;4.108;2024-01-15T05:02:20;2.80;99.90
19435;DHT22;9853;50.848;4.108;2024-01-15T05:04:21;2.60;99.90
19435;DHT22;9853;50.848;4.108;2024-01-15T05:06:22;2.70;99.90
19435;DHT22;9853;50.848;4.108;2024-01-15T05:08:23;2.60;99.90
19435;DHT22;9853;50.848;4.108;2024-01-15T05:10:23;2.50;99.90
19435;DHT22;9853;50.848;4.108;2024-01-15T05:12:24;2.50;99.90
19435;DHT22;9853;50.848;4.108;2024-01-15T05:14:25;2.70;99.90
19435;DHT22;9853;50.848;4.108;2024-01-15T05:16:26;2.70;99.90
19435;DHT22;9853;50.848;4.108;2024-01-15T05:18:26;2.70;99.90
19435;DHT22;9853;50.848;4.108;2024-01-15T05:20:27;2.60;99.90
19435;DHT22;9853;50.848;4.108;2024-01-15T05:22:28;2.80;99.90
19435;DHT22;9853;50.848;4.108;2024-01-15T05:24:29;2.90;99.90
19435;DHT22;9853;50.848;4.108;2024-01-15T05:26:30;2.80;99.90
19435;DHT22;9853;50.848;4.108;2024-01-15T05:28:30;2.90;99.90
19435;DHT22;9853;50.848;4.108;2024-01-15T05:30:31;3.00;99.90
19435;DHT22;9853;50.848;4.108;2024-01-15T05:32:33;2.90;99.90
19435;DHT22;9853;50.848;4.108;2024-01-15T05:34:33;2.70;99.90
19435;DHT22;9853;50.848;4.108;2024-01-15T05:36:34;2.60;99.90
19435;DHT22;9853;50.848;4.108;2024-01-15T05:38:35;2.50;99.90
19435;DHT22;9853;50.848;4.108;2024-01-15T05:40:36;2.60;99.90
19435;DHT22;9853;50.848;4.108;2024-01-15T05:42:37;2.60;99.90
19435;DHT22;9853;50.848;4.108;2024-01-15T05:44:38;2.50;99.90
19435;DHT22;9853;50.848;4.108;2024-01-15T05:46:38;2.50;99.90
19435;DHT22;9853;50.848;4.108;2024-01-15T05:48:39;2.50;99.90
19435;DHT22;9853;50.848;4.108;2024-01-15T05:50:41;2.40;99.90
19435;DHT22;9853;50.848;4.108;2024-01-15T05:52:42;2.20;99.90
19435;DHT22;9853;50.848;4.108;2024-01-15T05:54:42;2.30;99.90
19435;DHT22;9853;50.848;4.108;2024-01-15T05:56:43;2.40;99.90
19435;DHT22;9853;50.848;4.108;2024-01-15T05:58:44;2.40;99.90
19435;DHT22;9853;50.848;4.108;2024-01-15T06:00:45;2.50;99.90
19435;DHT22;9853;50.848;4.108;2024-01-15T06:02:46;2.50;99.90
19435;DHT22;9853;50.848;4.108;2024-01-15T06:04:47;2.50;99.90
19435;DHT22;9853;50.848;4.108;2024-01-15T06:06:48;2.50;99.90
19435;DHT22;9853;50.848;4.108;2024-01-15T06:08:49;2.50;99.90
19435;DHT22;9853;50.848;4.108;2024-01-15T06:10:50;2.30;99.90
19435;DHT22;9853;50.848;4.108;2024-01-15T06:12:51;2.30;99.90
19435;DHT22;9853;50.848;4.108;2024-01-15T06:14:51;2.30;99.90
19435;DHT22;9853;50.848;4.108;2024-01-15T06:16:52;2.20;99.90
19435;DHT22;9853;50.848;4.108;2024-01-15T06:18:53;2.20;99.90
19435;DHT22;9853;50.848;4.108;2024-01-15T06:20:54;2.30;99.90
19435;DHT22;9853;50.848;4.108;2024-01-15T06:22:55;2.40;99.90
19435;DHT22;9853;50.848;4.108;2024-01-15T06:24:57;2.50;99.90
19435;DHT22;9853;50.848;4.108;2024-01-15T06:26:58;2.40;99.90
19435;DHT22;9853;50.848;4.108;2024-01-15T06:28:59;2.30;99.90
19435;DHT22;9853;50.848;4.108;2024-01-15T06:31:00;2.30;99.90
19435;DHT22;9853;50.848;4.108;2024-01-15T06:33:00;2.20;99.90
19435;DHT22;9853;50.848;4.108;2024-01-15T06:35:03;2.10;99.90
19435;DHT22;9853;50.848;4.108;2024-01-15T06:37:20;2.10;99.90
19435;DHT22;9853;50.848;4.108;2024-01-15T06:39:21;2.00;99.90
19435;DHT22;9853;50.848;4.108;2024-01-15T06:41:33;1.90;99.90
19435;DHT22;9853;50.848;4.108;2024-01-15T06:43:34;1.80;99.90
19435;DHT22;9853;50.848;4.108;2024-01-15T06:45:35;1.70;99.90
19435;DHT22;9853;50.848;4.108;2024-01-15T06:47:36;1.70;99.90
19435;DHT22;9853;50.848;4.108;2024-01-15T06:49:37;1.70;99.90
19435;DHT22;9853;50.848;4.108;2024-01-15T06:51:38;1.70;99.90
19435;DHT22;9853;50.848;4.108;2024-01-15T06:53:41;1.70;99.90
19435;DHT22;9853;50.848;4.108;2024-01-15T06:55:42;1.80;99.90
19435;DHT22;9853;50.848;4.108;2024-01-15T06:57:46;1.80;99.90
19435;DHT22;9853;50.848;4.108;2024-01-15T06:59:47;1.80;99.90
19435;DHT22;9853;50.848;4.108;2024-01-15T07:01:53;1.90;99.90
19435;DHT22;9853;50.848;4.108;2024-01-15T07:03:56;2.00;99.90
19435;DHT22;9853;50.848;4.108;2024-01-15T07:05:59;2.00;99.90
19435;DHT22;9853;50.848;4.108;2024-01-15T07:08:01;2.00;99.90
19435;DHT22;9853;50.848;4.108;2024-01-15T07:10:11;1.90;99.90
19435;DHT22;9853;50.848;4.108;2024-01-15T07:12:21;1.80;99.90
19435;DHT22;9853;50.848;4.108;2024-01-15T07:14:22;1.80;99.90
19435;DHT22;9853;50.848;4.108;2024-01-15T07:16:23;1.70;99.90
19435;DHT22;9853;50.848;4.108;2024-01-15T07:18:24;1.70;99.90
19435;DHT22;9853;50.848;4.108;2024-01-15T07:20:25;1.70;99.90
19435;DHT22;9853;50.848;4.108;2024-01-15T07:22:26;1.60;99.90
19435;DHT22;9853;50.848;4.108;2024-01-15T07:24:27;1.60;99.90
19435;DHT22;9853;50.848;4.108;2024-01-15T07:26:29;1.60;99.90
19435;DHT22;9853;50.848;4.108;2024-01-15T07:28:33;1.60;99.90
19435;DHT22;9853;50.848;4.108;2024-01-15T07:30:34;1.50;99.90
19435;DHT22;9853;50.848;4.108;2024-01-15T07:32:35;1.50;99.90
19435;DHT22;9853;50.848;4.108;2024-01-15T07:34:36;1.50;99.90
19435;DHT22;9853;50.848;4.108;2024-01-15T07:36:37;1.50;99.90
19435;DHT22;9853;50.848;4.108;2024-01-15T07:38:38;1.50;99.90
19435;DHT22;9853;50.848;4.108;2024-01-15T07:40:39;1.50;99.90
19435;DHT22;9853;50.848;4.108;2024-01-15T07:42:40;1.50;99.90
19435;DHT22;9853;50.848;4.108;2024-01-15T07:44:43;1.50;99.90
19435;DHT22;9853;50.848;4.108;2024-01-15T07:46:47;1.60;99.90
19435;DHT22;9853;50.848;4.108;2024-01-15T07:48:48;1.60;99.90
19435;DHT22;9853;50.848;4.108;2024-01-15T07:50:51;1.50;99.90
19435;DHT22;9853;50.848;4.108;2024-01-15T07:52:56;1.50;99.90
19435;DHT22;9853;50.848;4.108;2024-01-15T07:54:57;1.60;99.90
19435;DHT22;9853;50.848;4.108;2024-01-15T07:57:01;1.60;99.90
19435;DHT22;9853;50.848;4.108;2024-01-15T07:59:05;1.60;99.90
19435;DHT22;9853;50.848;4.108;2024-01-15T08:01:06;1.60;99.90
19435;DHT22;9853;50.848;4.108;2024-01-15T08:03:07;1.70;99.90
19435;DHT22;9853;50.848;4.108;2024-01-15T08:05:08;1.70;99.90
19435;DHT22;9853;50.848;4.108;2024-01-15T08:07:09;2.00;99.90
19435;DHT22;9853;50.848;4.108;2024-01-15T08:09:10;2.00;99.90
19435;DHT22;9853;50.848;4.108;2024-01-15T08:11:11;2.20;99.90
19435;DHT22;9853;50.848;4.108;2024-01-15T08:13:12;2.20;99.90
19435;DHT22;9853;50.848;4.108;2024-01-15T08:15:13;2.30;99.90
19435;DHT22;9853;50.848;4.108;2024-01-15T08:17:14;2.30;99.90
19435;DHT22;9853;50.848;4.108;2024-01-15T08:19:16;2.40;99.90
19435;DHT22;9853;50.848;4.108;2024-01-15T08:21:17;2.50;99.90
19435;DHT22;9853;50.848;4.108;2024-01-15T08:23:19;2.80;99.90
19435;DHT22;9853;50.848;4.108;2024-01-15T08:25:23;3.10;99.90
19435;DHT22;9853;50.848;4.108;2024-01-15T08:27:25;3.10;99.90
19435;DHT22;9853;50.848;4.108;2024-01-15T08:29:26;3.20;99.90
19435;DHT22;9853;50.848;4.108;2024-01-15T08:31:27;3.30;99.90
19435;DHT22;9853;50.848;4.108;2024-01-15T08:33:29;3.40;99.90
19435;DHT22;9853;50.848;4.108;2024-01-15T08:35:32;3.40;99.90
19435;DHT22;9853;50.848;4.108;2024-01-15T08:37:38;3.30;99.90
19435;DHT22;9853;50.848;4.108;2024-01-15T08:39:39;3.30;99.90
19435;DHT22;9853;50.848;4.108;2024-01-15T08:41:40;3.10;99.90
19435;DHT22;9853;50.848;4.108;2024-01-15T08:43:40;3.20;99.90
19435;DHT22;9853;50.848;4.108;2024-01-15T08:45:41;3.30;99.90
19435;DHT22;9853;50.848;4.108;2024-01-15T08:47:45;3.30;99.90
19435;DHT22;9853;50.848;4.108;2024-01-15T08:49:46;3.40;99.90
19435;DHT22;9853;50.848;4.108;2024-01-15T08:51:47;3.20;99.90
19435;DHT22;9853;50.848;4.108;2024-01-15T08:53:48;3.30;99.90
19435;DHT22;9853;50.848;4.108;2024-01-15T08:55:52;3.50;99.90
19435;DHT22;9853;50.848;4.108;2024-01-15T08:57:55;3.50;99.90
19435;DHT22;9853;50.848;4.108;2024-01-15T08:59:56;3.70;99.90
19435;DHT22;9853;50.848;4.108;2024-01-15T09:01:57;3.80;99.90
19435;DHT22;9853;50.848;4.108;2024-01-15T09:03:58;3.90;99.90
19435;DHT22;9853;50.848;4.108;2024-01-15T09:06:01;3.80;99.90
19435;DHT22;9853;50.848;4.108;2024-01-15T09:08:36;3.80;99.90
19435;DHT22;9853;50.848;4.108;2024-01-15T09:10:47;3.60;99.90
19435;DHT22;9853;50.848;4.108;2024-01-15T09:13:08;3.50;99.90
19435;DHT22;9853;50.848;4.108;2024-01-15T09:15:15;3.60;99.90
19435;DHT22;9853;50.848;4.108;2024-01-15T09:17:20;3.70;99.90
19435;DHT22;9853;50.848;4.108;2024-01-15T09:22:42;3.80;99.90
19435;DHT22;9853;50.848;4.108;2024-01-15T09:24:53;4.10;99.90
19435;DHT22;9853;50.848;4.108;2024-01-15T09:27:10;4.30;99.90
19435;DHT22;9853;50.848;4.108;2024-01-15T09:29:13;4.60;99.90
19435;DHT22;9853;50.848;4.108;2024-01-15T09:32:08;4.80;99.90
19435;DHT22;9853;50.848;4.108;2024-01-15T09:34:54;4.50;99.90
19435;DHT22;9853;50.848;4.108;2024-01-15T09:49:57;4.10;99.90
19435;DHT22;9853;50.848;4.108;2024-01-15T09:55:54;4.00;99.90
19435;DHT22;9853;50.848;4.108;2024-01-15T09:58:58;4.00;99.90
19435;DHT22;9853;50.848;4.108;2024-01-15T10:04:40;3.80;99.90
19435;DHT22;9853;50.848;4.108;2024-01-15T10:07:04;3.80;99.90
19435;DHT22;9853;50.848;4.108;2024-01-15T10:12:58;3.80;99.90
19435;DHT22;9853;50.848;4.108;2024-01-15T10:15:25;3.90;99.90
19435;DHT22;9853;50.848;4.108;2024-01-15T10:17:29;3.90;99.90
19435;DHT22;9853;50.848;4.108;2024-01-15T10:19:34;4.00;99.90
19435;DHT22;9853;50.848;4.108;2024-01-15T10:21:37;3.80;99.90
19435;DHT22;9853;50.848;4.108;2024-01-15T10:23:41;3.80;99.90
19435;DHT22;9853;50.848;4.108;2024-01-15T10:25:51;3.80;99.90
19435;DHT22;9853;50.848;4.108;2024-01-15T10:28:14;4.00;99.90
19435;DHT22;9853;50.848;4.108;2024-01-15T10:30:15;4.10;99.90
19435;DHT22;9853;50.848;4.108;2024-01-15T10:32:20;4.20;99.90
19435;DHT22;9853;50.848;4.108;2024-01-15T10:34:25;4.20;99.90
19435;DHT22;9853;50.848;4.108;2024-01-15T10:36:26;4.20;99.90
19435;DHT22;9853;50.848;4.108;2024-01-15T10:38:30;4.20;99.90
19435;DHT22;9853;50.848;4.108;2024-01-15T10:40:32;4.20;99.90
19435;DHT22;9853;50.848;4.108;2024-01-15T10:42:35;4.20;99.90
19435;DHT22;9853;50.848;4.108;2024-01-15T10:44:36;4.20;99.90
19435;DHT22;9853;50.848;4.108;2024-01-15T10:46:50;4.10;99.90
19435;DHT22;9853;50.848;4.108;2024-01-15T10:48:52;4.20;99.90
19435;DHT22;9853;50.848;4.108;2024-01-15T10:50:53;4.30;99.90
19435;DHT22;9853;50.848;4.108;2024-01-15T10:52:54;4.30;99.90
19435;DHT22;9853;50.848;4.108;2024-01-15T10:54:55;4.40;99.90
19435;DHT22;9853;50.848;4.108;2024-01-15T10:56:57;4.40;99.90
19435;DHT22;9853;50.848;4.108;2024-01-15T10:59:01;4.30;99.90
19435;DHT22;9853;50.848;4.108;2024-01-15T11:01:03;4.60;99.90
19435;DHT22;9853;50.848;4.108;2024-01-15T11:03:06;4.70;99.90
19435;DHT22;9853;50.848;4.108;2024-01-15T11:05:07;4.80;99.90
19435;DHT22;9853;50.848;4.108;2024-01-15T11:07:08;4.90;99.90
19435;DHT22;9853;50.848;4.108;2024-01-15T11:09:12;5.00;99.90
19435;DHT22;9853;50.848;4.108;2024-01-15T11:11:13;4.80;99.90
19435;DHT22;9853;50.848;4.108;2024-01-15T11:15:21;4.80;99.90
19435;DHT22;9853;50.848;4.108;2024-01-15T11:17:22;4.80;99.90
19435;DHT22;9853;50.848;4.108;2024-01-15T11:19:23;4.80;99.90
19435;DHT22;9853;50.848;4.108;2024-01-15T11:21:24;4.90;99.90
19435;DHT22;9853;50.848;4.108;2024-01-15T11:23:46;5.10;99.90
19435;DHT22;9853;50.848;4.108;2024-01-15T11:25:47;5.20;99.90
19435;DHT22;9853;50.848;4.108;2024-01-15T11:27:51;5.10;99.90
19435;DHT22;9853;50.848;4.108;2024-01-15T11:30:03;5.00;99.90
19435;DHT22;9853;50.848;4.108;2024-01-15T11:32:06;4.90;99.90
19435;DHT22;9853;50.848;4.108;2024-01-15T11:34:08;4.70;99.90
19435;DHT22;9853;50.848;4.108;2024-01-15T11:36:09;4.60;99.90
19435;DHT22;9853;50.848;4.108;2024-01-15T11:38:11;4.40;99.90
19435;DHT22;9853;50.848;4.108;2024-01-15T11:40:12;4.30;99.90
19435;DHT22;9853;50.848;4.108;2024-01-15T11:42:15;4.20;99.90
19435;DHT22;9853;50.848;4.108;2024-01-15T11:44:16;4.30;99.90
19435;DHT22;9853;50.848;4.108;2024-01-15T11:46:18;4.20;99.90
19435;DHT22;9853;50.848;4.108;2024-01-15T11:48:19;4.20;99.90
19435;DHT22;9853;50.848;4.108;2024-01-15T11:50:21;4.40;99.90
19435;DHT22;9853;50.848;4.108;2024-01-15T11:52:23;4.40;99.90
19435;DHT22;9853;50.848;4.108;2024-01-15T11:54:24;4.30;99.90
19435;DHT22;9853;50.848;4.108;2024-01-15T11:56:26;4.60;99.90
19435;DHT22;9853;50.848;4.108;2024-01-15T11:58:27;4.60;99.90
19435;DHT22;9853;50.848;4.108;2024-01-15T12:00:28;4.60;99.90
19435;DHT22;9853;50.848;4.108;2024-01-15T12:02:29;4.60;99.90
19435;DHT22;9853;50.848;4.108;2024-01-15T12:04:30;4.60;99.90
19435;DHT22;9853;50.848;4.108;2024-01-15T12:06:31;4.60;99.90
19435;DHT22;9853;50.848;4.108;2024-01-15T12:08:33;4.60;99.90
19435;DHT22;9853;50.848;4.108;2024-01-15T12:10:34;4.40;99.90
19435;DHT22;9853;50.848;4.108;2024-01-15T12:12:53;4.50;99.90
19435;DHT22;9853;50.848;4.108;2024-01-15T12:14:56;4.60;99.90
19435;DHT22;9853;50.848;4.108;2024-01-15T12:16:56;4.80;99.90
19435;DHT22;9853;50.848;4.108;2024-01-15T12:18:57;5.00;99.90
19435;DHT22;9853;50.848;4.108;2024-01-15T12:20:58;4.80;99.90
19435;DHT22;9853;50.848;4.108;2024-01-15T12:23:00;5.00;99.90
19435;DHT22;9853;50.848;4.108;2024-01-15T12:25:01;5.20;99.90
19435;DHT22;9853;50.848;4.108;2024-01-15T12:27:02;5.30;99.90
19435;DHT22;9853;50.848;4.108;2024-01-15T12:29:06;5.20;99.90
19435;DHT22;9853;50.848;4.108;2024-01-15T12:31:07;5.30;99.90
19435;DHT22;9853;50.848;4.108;2024-01-15T12:33:08;5.20;99.90
19435;DHT22;9853;50.848;4.108;2024-01-15T12:35:10;5.20;99.90
19435;DHT22;9853;50.848;4.108;2024-01-15T12:37:11;5.20;99.90
19435;DHT22;9853;50.848;4.108;2024-01-15T12:39:13;5.20;99.90
19435;DHT22;9853;50.848;4.108;2024-01-15T12:41:16;5.20;99.90
19435;DHT22;9853;50.848;4.108;2024-01-15T12:43:17;5.00;99.90
19435;DHT22;9853;50.848;4.108;2024-01-15T12:45:19;5.20;99.90
19435;DHT22;9853;50.848;4.108;2024-01-15T12:47:20;5.10;99.90
19435;DHT22;9853;50.848;4.108;2024-01-15T12:49:21;5.10;99.90
19435;DHT22;9853;50.848;4.108;2024-01-15T12:51:28;5.20;99.90
19435;DHT22;9853;50.848;4.108;2024-01-15T12:53:28;5.20;99.90
19435;DHT22;9853;50.848;4.108;2024-01-15T12:55:29;5.10;99.90
19435;DHT22;9853;50.848;4.108;2024-01-15T12:57:30;4.80;99.90
19435;DHT22;9853;50.848;4.108;2024-01-15T12:59:33;4.70;99.90
19435;DHT22;9853;50.848;4.108;2024-01-15T13:01:34;4.50;99.90
19435;DHT22;9853;50.848;4.108;2024-01-15T13:03:36;4.30;99.90
19435;DHT22;9853;50.848;4.108;2024-01-15T13:05:37;4.40;99.90
19435;DHT22;9853;50.848;4.108;2024-01-15T13:07:39;4.40;99.90
19435;DHT22;9853;50.848;4.108;2024-01-15T13:09:40;4.60;99.90
19435;DHT22;9853;50.848;4.108;2024-01-15T13:11:41;4.50;99.90
19435;DHT22;9853;50.848;4.108;2024-01-15T13:13:42;4.50;99.90
19435;DHT22;9853;50.848;4.108;2024-01-15T13:15:42;4.60;99.90
19435;DHT22;9853;50.848;4.108;2024-01-15T13:17:44;4.60;99.90
19435;DHT22;9853;50.848;4.108;2024-01-15T13:19:45;4.50;99.90
19435;DHT22;9853;50.848;4.108;2024-01-15T13:21:47;4.40;99.90
19435;DHT22;9853;50.848;4.108;2024-01-15T13:23:48;4.40;99.90
19435;DHT22;9853;50.848;4.108;2024-01-15T13:25:49;4.30;99.90
19435;DHT22;9853;50.848;4.108;2024-01-15T13:27:50;4.20;99.90
19435;DHT22;9853;50.848;4.108;2024-01-15T13:29:52;4.40;99.90
19435;DHT22;9853;50.848;4.108;2024-01-15T13:31:53;4.50;99.90
19435;DHT22;9853;50.848;4.108;2024-01-15T13:33:54;4.60;99.90
19435;DHT22;9853;50.848;4.108;2024-01-15T13:35:59;4.60;99.90
19435;DHT22;9853;50.848;4.108;2024-01-15T13:38:14;4.60;99.90
19435;DHT22;9853;50.848;4.108;2024-01-15T13:40:24;4.70;99.90
19435;DHT22;9853;50.848;4.108;2024-01-15T13:42:42;5.10;99.90
19435;DHT22;9853;50.848;4.108;2024-01-15T13:44:49;5.20;99.90
19435;DHT22;9853;50.848;4.108;2024-01-15T13:46:56;5.10;99.90
19435;DHT22;9853;50.848;4.108;2024-01-15T13:49:26;5.00;99.90
19435;DHT22;9853;50.848;4.108;2024-01-15T13:51:27;4.90;99.90